KOUN/OUN METAR and TAF weather

Enter ICAO airport designator
Station Type Date Time Source
KOUN METAR 2023/02/06 16:46 UTC NOAA

KOUN 061646Z 16020G26KT 10SM CLR 17/10 A2986


Station Type Date Time Source
KOUN Decoded METAR 2023/02/06 16:46 UTC NOAA

Norman / Max Westheimer, OK, United States (KOUN) 35-13N 097-27W 357M
Feb 06, 2023 - 11:46 AM EST / 2023.02.06 1646 UTC
Wind: from the SSE (160 degrees) at 23 MPH (20 KT) gusting to 30 MPH (26 KT):0
Visibility: 10 mile(s):0
Sky conditions: clear
Temperature: 62 F (17 C)
Dew Point: 50 F (10 C)
Relative Humidity: 63%
Pressure (altimeter): 29.86 in. Hg (1011 hPa)
ob: KOUN 061646Z 16020G26KT 10SM CLR 17/10 A2986
cycle: 17

Station Type Date Time Source
KOUN TAF 2023/02/06 18:40 UTC NOAA

TAF KOUN 061734Z 0618/0718 19017G27KT P6SM BKN200
FM070000 19007KT P6SM BKN200
FM070400 35012G18KT P6SM OVC040 PROB30 0706/0712 6SM -SHRA OVC020
FM071200 35014G22KT P6SM OVC050 PROB30 0712/0718 6SM -SHRA OVC025

Example: see airport list